Terminal Aerodrome Forecast
Issued by NWS Flagstaff, AZ

Home | Current Version | Previous Version | Text Only | Print | Product List | Glossary On
Versions: 1 2 3 4 5 6 7 8 9 10 11 12 13 14 15 16 17 18 19 20 21 22 23 24 25 26
000
FTUS45 KFGZ 181100
TAFFLG
TAF
KFLG 181139Z 1812/1912 VRB02KT P6SM SCT009 OVC035
      TEMPO 1812/1815 1SM -SHSN BR OVC007
     FM181500 VRB03KT 6SM -SHSN BKN011 BKN025
      TEMPO 1815/1818 1SM -SHSN BR OVC009
     FM181800 VRB06KT P6SM SCT025 BKN035
      TEMPO 1818/1822 2SM -SHSN BKN012
     FM190100 VRB02KT P6SM SCT025 SCT060=

USA.gov is the U.S. government's official web portal to all federal, state and local government web resources and services.